首页
METAR-TAF:

METAR-TAF

机场 :

溫哥華國際機場

溫哥華, 不列颠哥伦比亚, 加拿大

纬度: 49-11N, 经度: 123-10W, 海拔: 3米

当前天气观测

该预报发布于43分钟前的16:00 UTC
风速8节,风向南转西南
温度 20°C
湿度 83%
气压 1018 hPa
能見度: 32.2公里
少量云层高于13000英尺
多云层高于22000英尺

METAR: CYVR 211600Z 21008KT 20SM FEW130 BKN220 20/17 A3005 RMK AC1CI5 SLP178 DENSITY ALT 500FT

时间: 09:43 (16:43 UTC)

预报

该预报发布于2小时和3分钟前的14:40 UTC
预报有效从21日的 15点(UTC)到 22日的 18点(UTC)
风速3节,风向多变
能見度: 10公里
散云层高于14000英尺
从 21日的 1800点(UTC)
风速8节,风向西
能見度: 10公里
散云层高于14000英尺
短暂存在
从 21日的 18点(UTC)到 21日的 21点(UTC)
能見度: 10公里
附近有阵雨
成为
从 21日的 21点(UTC)到 21日的 23点(UTC)
风速10节,风向西转西南
从 22日的 0400点(UTC)
风速8节,风向
能見度: 10公里
少量云层高于12000英尺
从 22日的 1400点(UTC)
风速8节,风向
能見度: 10公里
散云层高于3000英尺

TAF: CYVR 211440Z 2115/2218 VRB03KT P6SM SCT140 FM211800 27008KT P6SM SCT140 TEMPO 2118/2121 P6SM VCSH BECMG 2121/2123 24010KT FM220400 09008KT P6SM FEW120 FM221400 10008KT P6SM SCT030 RMK NXT FCST BY 211800Z

超过4000个机场的气象观测和天气预报(METAR&TAF报告)。

可查询的气象台以黄色和红色小点在地图上表示。

将鼠标移到小点上方,可查看气象台名称。

然后点击查看天气观测和预报。

如需切换地图:点击带黑十字的绿色按钮放大地图;点击带横线的绿色按钮缩小地图;或者点击绿色箭头查看邻近地区的地图。


METAR-TAF: